Time;durP1;ratioP1;P1;durP2;ratioP2;P2;SDS_P1;SDS_P2;PMS_P1;PMS_P2;Temp;Humidity;BMP_temperature;BMP_pressure;BME280_temperature;BME280_humidity;BME280_pressure;Samples;Min_cycle;Max_cycle;Signal;HPM_P1;HPM_P2
2022/11/30 00:00:18;;;;;;;;;;;8.20;99.90;;;;;;8421141;28;19924;-75
2022/11/30 00:04:19;;;;;;;;;;;8.20;99.90;;;;;;8427595;28;19935;-75
2022/11/30 00:08:21;;;;;;;;;;;8.20;99.90;;;;;;8428953;28;19960;-75
2022/11/30 00:12:23;;;;;;;;;;;8.20;99.90;;;;;;8416962;28;19923;-75
2022/11/30 00:16:26;;;;;;;;;;;8.20;99.90;;;;;;8420324;28;20310;-75
2022/11/30 00:20:28;;;;;;;;;;;8.20;99.90;;;;;;8399143;28;19924;-75
2022/11/30 00:24:30;;;;;;;;;;;8.20;99.90;;;;;;8422140;28;20285;-75
2022/11/30 00:28:32;;;;;;;;;;;8.20;99.90;;;;;;8429431;28;19946;-75
2022/11/30 00:32:34;;;;;;;;;;;8.30;99.90;;;;;;8426903;28;19964;-75
2022/11/30 00:36:36;;;;;;;;;;;8.30;99.90;;;;;;8420161;28;19932;-75
2022/11/30 00:40:37;;;;;;;;;;;8.20;99.90;;;;;;8415540;28;20622;-75
2022/11/30 00:44:39;;;;;;;;;;;8.20;99.90;;;;;;8431701;28;20286;-75
2022/11/30 00:58:47;;;;;;;;;;;8.30;99.90;;;;;;8428691;28;19934;-75
2022/11/30 01:02:56;;;;;;;;;;;8.30;99.90;;;;;;8427424;28;19971;-75
2022/11/30 01:06:58;;;;;;;;;;;8.30;99.90;;;;;;8424506;28;19932;-75
2022/11/30 01:11:09;;;;;;;;;;;8.30;99.90;;;;;;8418261;28;19924;-75
2022/11/30 01:15:11;;;;;;;;;;;8.30;99.90;;;;;;8414952;28;20656;-76
2022/11/30 01:19:12;;;;;;;;;;;8.30;99.90;;;;;;8420567;28;19923;-75
2022/11/30 01:23:14;;;;;;;;;;;8.30;99.90;;;;;;8426198;28;19951;-75
2022/11/30 01:27:16;;;;;;;;;;;8.30;99.90;;;;;;8411485;28;19924;-75
2022/11/30 01:31:18;;;;;;;;;;;8.40;99.90;;;;;;8412086;28;20303;-75
2022/11/30 01:35:19;;;;;;;;;;;8.30;99.90;;;;;;8418606;28;19924;-75
2022/11/30 01:39:21;;;;;;;;;;;8.30;99.90;;;;;;8417141;28;19931;-75
2022/11/30 01:43:35;;;;;;;;;;;8.30;99.90;;;;;;8428307;28;19966;-75
2022/11/30 01:47:39;;;;;;;;;;;8.30;99.90;;;;;;8426775;28;20015;-75
2022/11/30 01:51:44;;;;;;;;;;;8.30;99.90;;;;;;8429763;28;19928;-75
2022/11/30 01:55:47;;;;;;;;;;;8.30;99.90;;;;;;8406565;28;19924;-75
2022/11/30 01:59:50;;;;;;;;;;;8.30;99.90;;;;;;8429489;28;19924;-75
2022/11/30 02:03:55;;;;;;;;;;;8.30;99.90;;;;;;8426926;28;19924;-75
2022/11/30 02:07:57;;;;;;;;;;;8.30;99.90;;;;;;8423164;28;19925;-75
2022/11/30 02:12:00;;;;;;;;;;;8.30;99.90;;;;;;8418023;28;19928;-75
2022/11/30 02:16:01;;;;;;;;;;;8.30;99.90;;;;;;8434486;28;19924;-75
2022/11/30 02:20:12;;;;;;;;;;;8.30;99.90;;;;;;8424711;28;19928;-75
2022/11/30 02:24:20;;;;;;;;;;;8.30;99.90;;;;;;8435052;28;20018;-75
2022/11/30 02:28:30;;;;;;;;;;;8.30;99.90;;;;;;8417343;28;20387;-75
2022/11/30 02:32:39;;;;;;;;;;;8.30;99.90;;;;;;8420794;28;19932;-75
2022/11/30 02:36:41;;;;;;;;;;;8.30;99.90;;;;;;8431484;28;19924;-75
2022/11/30 02:40:43;;;;;;;;;;;8.30;99.90;;;;;;8394214;28;20011;-75
2022/11/30 02:44:50;;;;;;;;;;;8.30;99.90;;;;;;8424492;28;19977;-75
2022/11/30 02:49:04;;;;;;;;;;;8.30;99.90;;;;;;8412025;28;19924;-75
2022/11/30 02:53:07;;;;;;;;;;;8.30;99.90;;;;;;8423602;28;19928;-76
2022/11/30 02:57:09;;;;;;;;;;;8.30;99.90;;;;;;8412165;28;19974;-75
2022/11/30 03:01:11;;;;;;;;;;;8.30;99.90;;;;;;8426928;28;20022;-75
2022/11/30 03:05:12;;;;;;;;;;;8.30;99.90;;;;;;8426010;28;19954;-75
2022/11/30 03:09:14;;;;;;;;;;;8.20;99.90;;;;;;8407143;28;19963;-75
2022/11/30 03:13:16;;;;;;;;;;;8.20;99.90;;;;;;8422516;28;19930;-75
2022/11/30 03:17:17;;;;;;;;;;;8.20;99.90;;;;;;8427250;28;19966;-75
2022/11/30 03:21:19;;;;;;;;;;;8.20;99.90;;;;;;8417697;28;19931;-75
2022/11/30 03:25:21;;;;;;;;;;;8.20;99.90;;;;;;8426422;28;19924;-75
2022/11/30 03:29:22;;;;;;;;;;;8.20;99.90;;;;;;8407404;28;20319;-75
2022/11/30 03:33:24;;;;;;;;;;;8.20;99.90;;;;;;8424444;28;20020;-75
2022/11/30 03:37:26;;;;;;;;;;;8.10;99.90;;;;;;8423290;28;20457;-75
2022/11/30 03:41:28;;;;;;;;;;;8.10;99.90;;;;;;8430966;28;19932;-75
2022/11/30 03:45:29;;;;;;;;;;;8.10;99.90;;;;;;8422102;28;19964;-75
2022/11/30 03:49:31;;;;;;;;;;;8.10;99.90;;;;;;8428467;28;19993;-75
2022/11/30 03:53:33;;;;;;;;;;;8.00;99.90;;;;;;8424373;28;19947;-75
2022/11/30 03:57:34;;;;;;;;;;;8.10;99.90;;;;;;8407897;28;19931;-75
2022/11/30 04:01:36;;;;;;;;;;;8.00;99.90;;;;;;8415508;28;19924;-75
2022/11/30 04:05:37;;;;;;;;;;;8.00;99.90;;;;;;8429537;28;19924;-75
2022/11/30 04:09:39;;;;;;;;;;;8.00;99.90;;;;;;8426539;28;20259;-75
2022/11/30 04:13:41;;;;;;;;;;;8.00;99.90;;;;;;8424630;28;19931;-75
2022/11/30 04:17:43;;;;;;;;;;;8.00;99.90;;;;;;8433830;28;19930;-75
2022/11/30 04:21:45;;;;;;;;;;;8.00;99.90;;;;;;8417245;28;20300;-75
2022/11/30 04:25:47;;;;;;;;;;;8.00;99.90;;;;;;8400513;28;19969;-75
2022/11/30 04:29:48;;;;;;;;;;;7.90;99.90;;;;;;8427181;28;20352;-75
2022/11/30 04:33:53;;;;;;;;;;;7.90;99.90;;;;;;8420063;28;19943;-75
2022/11/30 04:37:55;;;;;;;;;;;7.90;99.90;;;;;;8430987;28;19974;-75
2022/11/30 04:41:56;;;;;;;;;;;7.90;99.90;;;;;;8433209;28;19971;-75
2022/11/30 04:45:58;;;;;;;;;;;7.90;99.90;;;;;;8436662;28;20010;-75
2022/11/30 04:50:00;;;;;;;;;;;7.90;99.90;;;;;;8423672;28;19932;-75
2022/11/30 04:54:02;;;;;;;;;;;7.90;99.90;;;;;;8418030;28;19924;-75
2022/11/30 04:58:04;;;;;;;;;;;7.90;99.90;;;;;;8423618;28;19959;-75
2022/11/30 05:02:05;;;;;;;;;;;7.90;99.90;;;;;;8432857;28;19950;-75
2022/11/30 05:06:07;;;;;;;;;;;7.90;99.90;;;;;;8432083;28;19927;-75
2022/11/30 05:10:09;;;;;;;;;;;7.90;99.90;;;;;;8432780;28;19967;-75
2022/11/30 05:14:11;;;;;;;;;;;7.90;99.90;;;;;;8419059;28;20375;-75
2022/11/30 05:18:14;;;;;;;;;;;7.90;99.90;;;;;;8432458;28;20282;-75
2022/11/30 05:22:16;;;;;;;;;;;7.90;99.90;;;;;;8437092;28;19936;-75
2022/11/30 05:26:18;;;;;;;;;;;7.90;99.90;;;;;;8437883;28;19928;-75
2022/11/30 05:30:19;;;;;;;;;;;7.90;99.90;;;;;;8420207;28;20387;-75
2022/11/30 05:34:21;;;;;;;;;;;7.80;99.90;;;;;;8431935;28;19924;-75
2022/11/30 05:38:23;;;;;;;;;;;7.80;99.90;;;;;;8420807;28;19931;-75
2022/11/30 05:42:24;;;;;;;;;;;7.70;99.90;;;;;;8387572;28;20323;-75
2022/11/30 05:46:26;;;;;;;;;;;7.70;99.90;;;;;;8409217;28;19936;-75
2022/11/30 05:50:28;;;;;;;;;;;7.70;99.90;;;;;;8410168;28;20019;-75
2022/11/30 05:54:30;;;;;;;;;;;7.70;99.90;;;;;;8399814;28;20685;-75
2022/11/30 05:58:32;;;;;;;;;;;7.70;99.90;;;;;;8431033;28;19939;-75
2022/11/30 06:02:34;;;;;;;;;;;7.60;99.90;;;;;;8403394;28;19928;-75
2022/11/30 06:06:35;;;;;;;;;;;7.60;99.90;;;;;;8408944;28;20392;-75
2022/11/30 06:10:37;;;;;;;;;;;7.60;99.90;;;;;;8401156;28;19950;-76
2022/11/30 06:14:39;;;;;;;;;;;7.60;99.90;;;;;;8388551;28;19925;-75
2022/11/30 06:18:40;;;;;;;;;;;7.60;99.90;;;;;;8384549;28;20024;-75
2022/11/30 06:22:46;;;;;;;;;;;7.60;99.90;;;;;;8390946;28;19977;-75
2022/11/30 06:26:47;;;;;;;;;;;7.50;99.90;;;;;;8392047;28;20019;-75
2022/11/30 06:30:49;;;;;;;;;;;7.50;99.90;;;;;;8391765;28;19932;-75
2022/11/30 06:34:51;;;;;;;;;;;7.50;99.90;;;;;;8387035;28;20043;-75
2022/11/30 06:54:02;;;;;;;;;;;7.40;99.90;;;;;;8392358;28;19973;-75
2022/11/30 06:58:04;;;;;;;;;;;7.30;99.90;;;;;;8379482;28;19928;-75
2022/11/30 07:02:13;;;;;;;;;;;7.30;99.90;;;;;;8393001;28;19950;-75
2022/11/30 07:06:18;;;;;;;;;;;7.30;99.90;;;;;;8390090;28;19998;-75
2022/11/30 07:10:21;;;;;;;;;;;7.20;99.90;;;;;;8403977;28;20034;-75
2022/11/30 07:14:24;;;;;;;;;;;7.20;99.90;;;;;;8415283;28;19931;-75
2022/11/30 07:18:26;;;;;;;;;;;7.10;99.90;;;;;;8395573;28;19923;-75
2022/11/30 07:22:32;;;;;;;;;;;7.00;99.90;;;;;;8421161;28;20279;-75
2022/11/30 07:26:36;;;;;;;;;;;6.90;99.90;;;;;;8388768;28;20317;-75
2022/11/30 07:30:38;;;;;;;;;;;6.80;99.90;;;;;;8407408;28;19963;-75
2022/11/30 07:34:39;;;;;;;;;;;6.80;99.90;;;;;;8425524;28;20018;-75
2022/11/30 07:38:41;;;;;;;;;;;6.70;99.90;;;;;;8419369;28;19924;-75
2022/11/30 07:42:42;;;;;;;;;;;6.70;99.90;;;;;;8415320;28;20010;-75
2022/11/30 07:46:44;;;;;;;;;;;6.70;99.90;;;;;;8409852;28;20633;-75
2022/11/30 07:50:46;;;;;;;;;;;6.60;99.90;;;;;;8427315;28;19935;-75
2022/11/30 07:54:48;;;;;;;;;;;6.60;99.90;;;;;;8417691;28;19924;-75
2022/11/30 07:58:52;;;;;;;;;;;6.60;99.90;;;;;;8412285;28;19928;-75
2022/11/30 08:02:53;;;;;;;;;;;6.60;99.90;;;;;;8422078;28;19934;-75
2022/11/30 08:06:55;;;;;;;;;;;6.60;99.90;;;;;;8402145;28;19971;-75
2022/11/30 08:10:57;;;;;;;;;;;6.60;99.90;;;;;;8420050;28;19932;-75
2022/11/30 08:14:59;;;;;;;;;;;6.50;99.90;;;;;;8391869;28;19971;-74
2022/11/30 08:19:20;;;;;;;;;;;6.50;99.90;;;;;;8422920;28;19939;-74
2022/11/30 08:23:22;;;;;;;;;;;6.50;99.90;;;;;;8410084;28;20336;-75
2022/11/30 08:27:24;;;;;;;;;;;6.40;99.90;;;;;;8412424;28;20926;-75
2022/11/30 08:31:27;;;;;;;;;;;6.40;99.90;;;;;;8419253;28;19928;-75
2022/11/30 08:35:29;;;;;;;;;;;6.40;99.90;;;;;;8405522;28;19935;-75
2022/11/30 08:39:33;;;;;;;;;;;6.40;99.90;;;;;;8400752;28;20377;-75
2022/11/30 08:43:34;;;;;;;;;;;6.50;99.90;;;;;;8418855;28;19931;-75
2022/11/30 08:47:36;;;;;;;;;;;6.60;99.90;;;;;;8423707;28;19935;-75
2022/11/30 08:51:38;;;;;;;;;;;6.70;99.90;;;;;;8423641;28;20696;-75
2022/11/30 08:56:00;;;;;;;;;;;6.80;99.90;;;;;;8409765;28;19932;-75
2022/11/30 09:00:03;;;;;;;;;;;7.00;99.90;;;;;;8396350;28;19932;-75
2022/11/30 09:04:05;;;;;;;;;;;7.10;99.90;;;;;;8425329;28;19924;-75
2022/11/30 09:08:33;;;;;;;;;;;7.20;99.90;;;;;;8418341;28;20313;-75
2022/11/30 09:12:39;;;;;;;;;;;7.20;99.90;;;;;;8389173;28;19925;-75
2022/11/30 09:16:41;;;;;;;;;;;7.30;99.90;;;;;;8393747;28;19968;-75
2022/11/30 09:20:43;;;;;;;;;;;7.40;99.90;;;;;;8395516;28;19928;-75
2022/11/30 09:24:44;;;;;;;;;;;7.50;99.90;;;;;;8393197;28;19975;-75
2022/11/30 09:28:46;;;;;;;;;;;7.60;99.90;;;;;;8387908;28;19939;-76
2022/11/30 09:32:48;;;;;;;;;;;7.60;99.90;;;;;;8397604;28;20011;-75
2022/11/30 09:36:50;;;;;;;;;;;7.70;99.90;;;;;;8391490;28;19928;-75
2022/11/30 09:40:53;;;;;;;;;;;7.80;99.90;;;;;;8382649;28;19931;-75
2022/11/30 09:45:00;;;;;;;;;;;8.00;99.90;;;;;;8376269;28;19972;-75
2022/11/30 09:49:21;;;;;;;;;;;8.00;99.90;;;;;;8393130;28;19986;-75
2022/11/30 09:53:25;;;;;;;;;;;8.10;99.90;;;;;;8386376;28;19924;-75
2022/11/30 09:57:33;;;;;;;;;;;8.20;99.90;;;;;;8381360;28;19936;-75
2022/11/30 10:01:35;;;;;;;;;;;8.30;99.90;;;;;;8383089;28;19928;-75
2022/11/30 10:05:41;;;;;;;;;;;8.40;99.90;;;;;;8388000;28;19942;-75
2022/11/30 10:09:43;;;;;;;;;;;8.50;99.90;;;;;;8399368;28;19924;-75
2022/11/30 10:14:12;;;;;;;;;;;8.60;99.90;;;;;;8421327;28;20004;-75
2022/11/30 10:18:21;;;;;;;;;;;8.60;99.90;;;;;;8427562;28;19924;-75
2022/11/30 10:22:29;;;;;;;;;;;8.70;99.90;;;;;;8399681;28;20029;-75
2022/11/30 10:26:32;;;;;;;;;;;8.80;99.90;;;;;;8417927;28;20047;-75
2022/11/30 10:30:35;;;;;;;;;;;8.90;99.90;;;;;;8417236;28;19971;-75
2022/11/30 10:34:37;;;;;;;;;;;8.90;99.90;;;;;;8419042;28;19975;-75
2022/11/30 10:38:48;;;;;;;;;;;9.00;99.90;;;;;;8403242;28;19946;-75
2022/11/30 10:43:14;;;;;;;;;;;9.00;99.90;;;;;;8409335;28;19928;-75
2022/11/30 10:47:20;;;;;;;;;;;9.00;99.90;;;;;;8429786;28;19940;-75
2022/11/30 10:51:22;;;;;;;;;;;9.00;99.90;;;;;;8400903;28;19932;-75
2022/11/30 10:55:24;;;;;;;;;;;9.10;99.90;;;;;;8399698;28;21713;-75
2022/11/30 10:59:33;;;;;;;;;;;9.10;99.90;;;;;;8403604;28;20009;-78
2022/11/30 11:03:35;;;;;;;;;;;9.20;99.90;;;;;;8380312;28;19924;-78
2022/11/30 11:07:43;;;;;;;;;;;9.40;99.90;;;;;;8393035;28;20387;-78
2022/11/30 11:11:51;;;;;;;;;;;9.50;99.90;;;;;;8394275;28;20361;-78
2022/11/30 11:15:57;;;;;;;;;;;9.60;99.90;;;;;;8400347;28;19946;-79
2022/11/30 11:19:59;;;;;;;;;;;9.70;99.90;;;;;;8392516;28;20356;-78
2022/11/30 11:29:04;;;;;;;;;;;10.50;99.90;;;;;;8396524;28;19961;-79
2022/11/30 11:33:12;;;;;;;;;;;10.90;99.90;;;;;;8394089;28;19932;-78
2022/11/30 11:37:17;;;;;;;;;;;11.30;99.90;;;;;;8394451;28;19970;-79
2022/11/30 11:41:36;;;;;;;;;;;11.90;99.90;;;;;;8388754;28;19937;-79
2022/11/30 11:45:38;;;;;;;;;;;12.60;99.90;;;;;;8407010;28;19932;-78
2022/11/30 11:49:39;;;;;;;;;;;13.00;99.90;;;;;;8394113;28;19924;-79
2022/11/30 11:53:47;;;;;;;;;;;13.50;99.90;;;;;;8386856;28;20015;-79
2022/11/30 11:57:57;;;;;;;;;;;14.10;99.90;;;;;;8388776;28;19936;-79
2022/11/30 12:16:55;;;;;;;;;;;12.70;99.90;;;;;;8311544;28;20703;-78
2022/11/30 12:21:06;;;;;;;;;;;12.10;99.90;;;;;;8320408;28;19937;-78
2022/11/30 12:25:08;;;;;;;;;;;11.70;99.90;;;;;;8320047;28;19972;-78
2022/11/30 12:29:16;;;;;;;;;;;11.50;99.90;;;;;;8320987;28;19986;-78
2022/11/30 12:33:24;;;;;;;;;;;11.40;99.90;;;;;;8314290;28;20381;-79
2022/11/30 12:37:32;;;;;;;;;;;11.50;99.90;;;;;;8324525;28;19936;-79
2022/11/30 12:41:38;;;;;;;;;;;11.80;99.90;;;;;;8323302;28;20801;-79
2022/11/30 12:45:42;;;;;;;;;;;11.80;99.90;;;;;;8330825;28;20272;-79
2022/11/30 12:49:51;;;;;;;;;;;12.30;99.90;;;;;;8335365;28;20415;-79
2022/11/30 12:54:10;;;;;;;;;;;12.90;99.90;;;;;;8329971;28;19929;-79
2022/11/30 12:58:11;;;;;;;;;;;13.70;99.90;;;;;;8324631;28;19943;-79
2022/11/30 13:02:30;;;;;;;;;;;14.50;99.90;;;;;;8321961;28;20286;-77
2022/11/30 13:06:36;;;;;;;;;;;14.80;99.90;;;;;;8329210;28;19928;-77
2022/11/30 13:10:50;;;;;;;;;;;15.00;99.90;;;;;;8328604;28;22836;-76
2022/11/30 13:14:57;;;;;;;;;;;15.10;99.90;;;;;;8365179;28;19935;-76
2022/11/30 13:19:06;;;;;;;;;;;15.00;99.90;;;;;;8388765;28;19942;-76
2022/11/30 13:23:12;;;;;;;;;;;14.50;99.90;;;;;;8382791;28;19978;-76
2022/11/30 13:27:22;;;;;;;;;;;13.90;99.90;;;;;;8393072;28;20492;-77
2022/11/30 13:31:26;;;;;;;;;;;13.30;99.90;;;;;;8394321;28;20379;-76
2022/11/30 13:35:28;;;;;;;;;;;12.80;99.90;;;;;;8398561;28;19928;-76
2022/11/30 13:39:34;;;;;;;;;;;12.40;99.90;;;;;;8395283;28;20018;-76
2022/11/30 13:43:42;;;;;;;;;;;12.10;99.90;;;;;;8387019;28;20383;-76
2022/11/30 13:47:48;;;;;;;;;;;12.10;99.90;;;;;;8397153;28;19932;-77
2022/11/30 13:51:50;;;;;;;;;;;12.00;99.90;;;;;;8399012;28;19932;-77
2022/11/30 13:56:17;;;;;;;;;;;12.00;99.90;;;;;;8400009;28;19939;-76
2022/11/30 14:00:31;;;;;;;;;;;11.80;99.90;;;;;;8394876;28;19942;-76
2022/11/30 14:04:42;;;;;;;;;;;11.60;99.90;;;;;;8394206;28;19967;-76
2022/11/30 14:08:44;;;;;;;;;;;11.50;99.90;;;;;;8372887;28;19935;-76
2022/11/30 14:12:46;;;;;;;;;;;11.50;99.90;;;;;;8376628;28;19997;-75
2022/11/30 14:16:48;;;;;;;;;;;11.50;99.90;;;;;;8394317;28;20576;-76
2022/11/30 14:20:52;;;;;;;;;;;11.50;99.90;;;;;;8381786;28;20015;-76
2022/11/30 14:24:54;;;;;;;;;;;11.50;99.90;;;;;;8373680;28;19935;-76
2022/11/30 14:29:01;;;;;;;;;;;11.30;99.90;;;;;;8400755;28;19968;-76
2022/11/30 14:33:05;;;;;;;;;;;11.20;99.90;;;;;;8396086;28;20003;-77
2022/11/30 14:37:30;;;;;;;;;;;11.10;99.90;;;;;;8391938;28;19929;-79
2022/11/30 14:41:32;;;;;;;;;;;11.00;99.90;;;;;;8367711;28;20446;-79
2022/11/30 14:45:34;;;;;;;;;;;10.80;99.90;;;;;;8396025;28;20274;-79
2022/11/30 14:49:43;;;;;;;;;;;10.70;99.90;;;;;;8396656;28;19966;-78
2022/11/30 14:53:53;;;;;;;;;;;10.50;99.90;;;;;;8392006;28;20294;-78
2022/11/30 14:58:05;;;;;;;;;;;10.40;99.90;;;;;;8391527;28;19936;-78
2022/11/30 15:02:16;;;;;;;;;;;10.30;99.90;;;;;;8391596;28;20174;-78
2022/11/30 15:06:19;;;;;;;;;;;10.10;99.90;;;;;;8394459;28;19929;-78
2022/11/30 15:10:31;;;;;;;;;;;10.00;99.90;;;;;;8392482;28;19928;-78
2022/11/30 15:14:32;;;;;;;;;;;9.80;99.90;;;;;;8392833;28;19963;-78
2022/11/30 15:18:37;;;;;;;;;;;9.70;99.90;;;;;;8381623;28;20419;-78
2022/11/30 15:22:39;;;;;;;;;;;9.60;99.90;;;;;;8381157;28;19927;-78
2022/11/30 15:26:47;;;;;;;;;;;9.40;99.90;;;;;;8388129;28;20406;-78
2022/11/30 15:30:52;;;;;;;;;;;9.30;99.90;;;;;;8368162;28;19951;-78
2022/11/30 15:34:56;;;;;;;;;;;9.20;99.90;;;;;;8394224;28;19928;-78
2022/11/30 15:38:59;;;;;;;;;;;9.00;99.90;;;;;;8392990;28;19933;-78
2022/11/30 15:53:22;;;;;;;;;;;8.70;99.90;;;;;;8390507;28;19927;-78
2022/11/30 15:57:25;;;;;;;;;;;8.60;99.90;;;;;;8390455;28;19924;-78
2022/11/30 16:01:27;;;;;;;;;;;8.50;99.90;;;;;;8386012;28;19928;-78
2022/11/30 16:05:29;;;;;;;;;;;8.40;99.90;;;;;;8390597;28;20093;-78
2022/11/30 16:09:34;;;;;;;;;;;8.30;99.90;;;;;;8374524;28;19928;-78
2022/11/30 16:13:35;;;;;;;;;;;8.20;99.90;;;;;;8382828;28;19979;-78
2022/11/30 16:17:37;;;;;;;;;;;8.10;99.90;;;;;;8395646;28;20423;-78
2022/11/30 16:21:39;;;;;;;;;;;8.00;99.90;;;;;;8381755;28;20000;-78
2022/11/30 16:25:41;;;;;;;;;;;7.90;99.90;;;;;;8385268;28;19948;-78
2022/11/30 16:29:43;;;;;;;;;;;7.80;99.90;;;;;;8377004;28;20299;-78
2022/11/30 16:33:49;;;;;;;;;;;7.70;99.90;;;;;;8394012;28;20304;-78
2022/11/30 16:37:51;;;;;;;;;;;7.70;99.90;;;;;;8379872;28;20364;-78
2022/11/30 16:41:52;;;;;;;;;;;7.70;99.90;;;;;;8394359;28;19929;-78
2022/11/30 16:45:54;;;;;;;;;;;7.70;99.90;;;;;;8384341;28;19986;-78
2022/11/30 17:00:03;;;;;;;;;;;7.80;99.90;;;;;;8391486;28;19970;-78
2022/11/30 17:04:10;;;;;;;;;;;7.70;99.90;;;;;;8395534;28;20027;-78
2022/11/30 17:08:12;;;;;;;;;;;7.70;99.90;;;;;;8396322;28;19986;-78
2022/11/30 17:12:14;;;;;;;;;;;7.70;99.90;;;;;;8400626;28;19935;-78
2022/11/30 17:16:15;;;;;;;;;;;7.60;99.90;;;;;;8390572;28;19967;-78
2022/11/30 17:20:17;;;;;;;;;;;7.50;99.90;;;;;;8377366;28;20327;-78
2022/11/30 17:24:19;;;;;;;;;;;7.30;99.90;;;;;;8384377;28;19985;-78
2022/11/30 17:28:21;;;;;;;;;;;7.20;99.90;;;;;;8396469;28;19963;-78
2022/11/30 17:47:33;;;;;;;;;;;6.80;99.90;;;;;;8398426;28;20429;-78
2022/11/30 17:51:35;;;;;;;;;;;6.70;99.90;;;;;;8408846;28;20027;-78
2022/11/30 17:55:37;;;;;;;;;;;6.70;99.90;;;;;;8399339;28;20027;-78
2022/11/30 17:59:39;;;;;;;;;;;6.70;99.90;;;;;;8387633;28;20276;-78
2022/11/30 18:03:41;;;;;;;;;;;6.70;99.90;;;;;;8395198;28;20394;-78
2022/11/30 18:07:42;;;;;;;;;;;6.70;99.90;;;;;;8388247;28;19950;-78
2022/11/30 18:11:44;;;;;;;;;;;6.60;99.90;;;;;;8387530;28;19928;-78
2022/11/30 18:15:45;;;;;;;;;;;6.60;99.90;;;;;;8389944;28;19924;-78
2022/11/30 18:19:47;;;;;;;;;;;6.60;99.90;;;;;;8391015;28;19925;-78
2022/11/30 18:23:49;;;;;;;;;;;6.50;99.90;;;;;;8397729;28;19938;-78
2022/11/30 18:27:51;;;;;;;;;;;6.40;99.90;;;;;;8397171;28;20066;-78
2022/11/30 18:31:53;;;;;;;;;;;6.40;99.90;;;;;;8375490;28;19932;-78
2022/11/30 18:35:58;;;;;;;;;;;6.30;99.90;;;;;;8390099;28;19994;-78
2022/11/30 18:40:00;;;;;;;;;;;6.30;99.90;;;;;;8378052;28;19938;-78
2022/11/30 18:44:02;;;;;;;;;;;6.20;99.90;;;;;;8393972;28;19924;-78
2022/11/30 18:48:05;;;;;;;;;;;6.10;99.90;;;;;;8381003;28;19930;-77
2022/11/30 18:52:06;;;;;;;;;;;6.00;99.90;;;;;;8386258;28;19931;-78
2022/11/30 18:56:18;;;;;;;;;;;6.00;99.90;;;;;;8393373;28;20285;-78
2022/11/30 19:00:20;;;;;;;;;;;5.90;99.90;;;;;;8380435;28;20315;-78
2022/11/30 19:04:22;;;;;;;;;;;5.90;99.90;;;;;;8373416;28;19932;-78
2022/11/30 19:08:24;;;;;;;;;;;5.90;99.90;;;;;;8376600;28;19942;-78
2022/11/30 19:12:26;;;;;;;;;;;5.90;99.90;;;;;;8393236;28;19924;-78
2022/11/30 19:16:28;;;;;;;;;;;5.90;99.90;;;;;;8391363;28;19928;-78
2022/11/30 19:20:30;;;;;;;;;;;5.80;99.90;;;;;;8389654;28;19967;-78
2022/11/30 19:24:31;;;;;;;;;;;5.80;99.90;;;;;;8373261;28;19964;-78
2022/11/30 19:28:34;;;;;;;;;;;5.80;99.90;;;;;;8387087;28;19963;-78
2022/11/30 19:32:35;;;;;;;;;;;5.70;99.90;;;;;;8391683;28;19931;-77
2022/11/30 19:36:37;;;;;;;;;;;5.70;99.90;;;;;;8396267;28;19955;-78
2022/11/30 19:40:39;;;;;;;;;;;5.70;99.90;;;;;;8378930;28;19931;-78
2022/11/30 19:44:41;;;;;;;;;;;5.60;99.90;;;;;;8398582;28;19932;-78
2022/11/30 19:48:43;;;;;;;;;;;5.60;99.90;;;;;;8389617;28;20022;-78
2022/11/30 19:52:44;;;;;;;;;;;5.50;99.90;;;;;;8367839;28;20110;-78
2022/11/30 19:56:46;;;;;;;;;;;5.50;99.90;;;;;;8387616;28;19930;-78
2022/11/30 20:00:54;;;;;;;;;;;5.40;99.90;;;;;;8380524;28;19925;-78
2022/11/30 20:04:55;;;;;;;;;;;5.20;99.90;;;;;;8384952;28;21401;-77
2022/11/30 20:08:57;;;;;;;;;;;5.20;99.90;;;;;;8386058;28;20023;-78
2022/11/30 20:12:59;;;;;;;;;;;5.10;99.90;;;;;;8395778;28;19933;-77
2022/11/30 20:17:00;;;;;;;;;;;5.00;99.90;;;;;;8400389;28;20007;-78
2022/11/30 20:21:12;;;;;;;;;;;4.90;99.90;;;;;;8382052;28;19929;-77
2022/11/30 20:25:14;;;;;;;;;;;4.90;99.90;;;;;;8391766;28;20646;-78
2022/11/30 20:29:16;;;;;;;;;;;4.80;99.90;;;;;;8378110;28;20385;-78
2022/11/30 20:33:18;;;;;;;;;;;4.80;99.90;;;;;;8384533;28;22657;-77
2022/11/30 20:37:19;;;;;;;;;;;4.70;99.90;;;;;;8394977;28;20027;-77
2022/11/30 20:41:22;;;;;;;;;;;4.70;99.90;;;;;;8377203;28;20371;-78
2022/11/30 20:45:26;;;;;;;;;;;4.60;99.90;;;;;;8388180;28;19972;-77
2022/11/30 20:49:28;;;;;;;;;;;4.60;99.90;;;;;;8391904;28;19928;-77
2022/11/30 20:53:29;;;;;;;;;;;4.60;99.90;;;;;;8367761;28;19940;-77
2022/11/30 20:57:31;;;;;;;;;;;4.70;99.90;;;;;;8399235;28;19978;-78
2022/11/30 21:01:33;;;;;;;;;;;4.80;99.90;;;;;;8390742;28;19932;-78
2022/11/30 21:05:37;;;;;;;;;;;4.80;99.90;;;;;;8396800;28;20309;-77
2022/11/30 21:09:38;;;;;;;;;;;4.90;99.90;;;;;;8392053;28;19967;-77
2022/11/30 21:13:42;;;;;;;;;;;4.90;99.90;;;;;;8400009;28;19971;-78
2022/11/30 21:17:44;;;;;;;;;;;5.00;99.90;;;;;;8400145;28;19928;-78
2022/11/30 21:21:45;;;;;;;;;;;5.10;99.90;;;;;;8399295;28;19931;-78
2022/11/30 21:25:47;;;;;;;;;;;5.20;99.90;;;;;;8399543;28;19944;-78
2022/11/30 21:29:49;;;;;;;;;;;5.20;99.90;;;;;;8379009;28;19924;-78
2022/11/30 21:33:51;;;;;;;;;;;5.30;99.90;;;;;;8392061;28;19925;-78
2022/11/30 21:37:54;;;;;;;;;;;5.40;99.90;;;;;;8400186;28;19928;-77
2022/11/30 21:41:56;;;;;;;;;;;5.50;99.90;;;;;;8398655;28;20287;-77
2022/11/30 21:45:58;;;;;;;;;;;5.60;99.90;;;;;;8386169;28;20023;-77
2022/11/30 21:50:00;;;;;;;;;;;5.70;99.90;;;;;;8397418;28;20678;-78
2022/11/30 21:54:02;;;;;;;;;;;5.80;99.90;;;;;;8392333;28;20023;-78
2022/11/30 21:58:04;;;;;;;;;;;5.80;99.90;;;;;;8384797;28;19925;-78
2022/11/30 22:02:07;;;;;;;;;;;5.90;99.90;;;;;;8402565;28;20393;-78
2022/11/30 22:06:10;;;;;;;;;;;5.90;99.90;;;;;;8421700;28;19931;-78
2022/11/30 22:10:12;;;;;;;;;;;6.00;99.90;;;;;;8395674;28;20295;-78
2022/11/30 22:14:15;;;;;;;;;;;6.00;99.90;;;;;;8413359;28;19942;-77
2022/11/30 22:18:16;;;;;;;;;;;6.00;99.90;;;;;;8420755;28;19977;-78
2022/11/30 22:22:18;;;;;;;;;;;6.00;99.90;;;;;;8407077;28;19931;-78
2022/11/30 22:26:24;;;;;;;;;;;6.00;99.90;;;;;;8396937;28;19932;-77
2022/11/30 22:30:26;;;;;;;;;;;6.00;99.90;;;;;;8411726;28;19924;-77
2022/11/30 22:34:28;;;;;;;;;;;6.00;99.90;;;;;;8404587;28;19928;-78
2022/11/30 22:38:29;;;;;;;;;;;5.90;99.90;;;;;;8402960;28;20355;-78
2022/11/30 22:42:31;;;;;;;;;;;5.90;99.90;;;;;;8420203;28;19928;-77
2022/11/30 22:46:34;;;;;;;;;;;5.90;99.90;;;;;;8399138;28;20016;-78
2022/11/30 22:50:35;;;;;;;;;;;5.90;99.90;;;;;;8406832;28;19924;-78
2022/11/30 22:54:37;;;;;;;;;;;5.90;99.90;;;;;;8420296;28;20291;-78
2022/11/30 22:58:39;;;;;;;;;;;5.90;99.90;;;;;;8411397;28;19986;-77
2022/11/30 23:02:41;;;;;;;;;;;5.80;99.90;;;;;;8412007;28;19929;-77
2022/11/30 23:06:43;;;;;;;;;;;5.80;99.90;;;;;;8417000;28;20292;-77
2022/11/30 23:10:45;;;;;;;;;;;5.80;99.90;;;;;;8415710;28;19928;-77
2022/11/30 23:14:46;;;;;;;;;;;5.80;99.90;;;;;;8422119;28;19927;-78
2022/11/30 23:18:59;;;;;;;;;;;5.80;99.90;;;;;;8415871;28;19924;-78
2022/11/30 23:23:00;;;;;;;;;;;5.80;99.90;;;;;;8409428;28;19966;-78
2022/11/30 23:27:02;;;;;;;;;;;5.80;99.90;;;;;;8393540;28;19927;-77
2022/11/30 23:31:04;;;;;;;;;;;5.80;99.90;;;;;;8414663;28;20397;-77
2022/11/30 23:35:06;;;;;;;;;;;5.80;99.90;;;;;;8417023;28;19931;-78
2022/11/30 23:39:09;;;;;;;;;;;5.80;99.90;;;;;;8419493;28;19930;-78
2022/11/30 23:43:11;;;;;;;;;;;5.80;99.90;;;;;;8395448;28;19928;-77
2022/11/30 23:47:12;;;;;;;;;;;5.80;99.90;;;;;;8414990;28;19967;-77
2022/11/30 23:51:18;;;;;;;;;;;5.80;99.90;;;;;;8412181;28;19928;-78
2022/11/30 23:55:20;;;;;;;;;;;5.80;99.90;;;;;;8409434;28;19932;-78
2022/11/30 23:59:21;;;;;;;;;;;5.80;99.90;;;;;;8410581;28;19931;-78
